sensor_id;sensor_type;location;lat;lon;timestamp;pressure;altitude;pressure_sealevel;temperature;humidity
28312;BME280;15572;48.810;9.148;2023-05-10T00:01:38;97503.81;;;13.76;100.00
28312;BME280;15572;48.810;9.148;2023-05-10T00:06:35;97514.06;;;13.74;100.00
28312;BME280;15572;48.810;9.148;2023-05-10T00:11:33;97523.16;;;13.68;100.00
28312;BME280;15572;48.810;9.148;2023-05-10T00:16:29;97505.38;;;13.54;100.00
28312;BME280;15572;48.810;9.148;2023-05-10T00:21:26;97504.16;;;13.38;100.00
28312;BME280;15572;48.810;9.148;2023-05-10T00:26:23;97508.56;;;13.21;100.00
28312;BME280;15572;48.810;9.148;2023-05-10T00:31:21;97508.31;;;13.04;100.00
28312;BME280;15572;48.810;9.148;2023-05-10T00:36:17;97503.66;;;12.93;100.00
28312;BME280;15572;48.810;9.148;2023-05-10T00:41:14;97502.16;;;12.79;100.00
28312;BME280;15572;48.810;9.148;2023-05-10T00:46:10;97513.50;;;12.76;100.00
28312;BME280;15572;48.810;9.148;2023-05-10T00:51:08;97517.13;;;12.70;100.00
28312;BME280;15572;48.810;9.148;2023-05-10T00:56:05;97524.88;;;12.66;100.00
28312;BME280;15572;48.810;9.148;2023-05-10T01:01:02;97529.94;;;12.62;100.00
28312;BME280;15572;48.810;9.148;2023-05-10T01:05:58;97540.84;;;12.56;100.00
28312;BME280;15572;48.810;9.148;2023-05-10T01:10:56;97538.59;;;12.53;100.00
28312;BME280;15572;48.810;9.148;2023-05-10T01:15:54;97535.19;;;12.57;100.00
28312;BME280;15572;48.810;9.148;2023-05-10T01:21:07;97531.81;;;12.62;100.00
28312;BME280;15572;48.810;9.148;2023-05-10T01:26:19;97534.78;;;12.60;100.00
28312;BME280;15572;48.810;9.148;2023-05-10T01:31:30;97534.16;;;12.58;100.00
28312;BME280;15572;48.810;9.148;2023-05-10T01:36:33;97547.13;;;12.56;100.00
28312;BME280;15572;48.810;9.148;2023-05-10T01:41:38;97548.63;;;12.52;100.00
28312;BME280;15572;48.810;9.148;2023-05-10T01:46:37;97554.72;;;12.48;100.00
28312;BME280;15572;48.810;9.148;2023-05-10T01:51:39;97561.22;;;12.47;100.00
28312;BME280;15572;48.810;9.148;2023-05-10T01:56:39;97562.25;;;12.46;100.00
28312;BME280;15572;48.810;9.148;2023-05-10T02:01:37;97566.84;;;12.45;100.00
28312;BME280;15572;48.810;9.148;2023-05-10T02:06:35;97576.88;;;12.45;100.00
28312;BME280;15572;48.810;9.148;2023-05-10T02:11:37;97572.28;;;12.45;100.00
28312;BME280;15572;48.810;9.148;2023-05-10T02:16:35;97574.09;;;12.51;100.00
28312;BME280;15572;48.810;9.148;2023-05-10T02:21:33;97563.72;;;12.48;100.00
28312;BME280;15572;48.810;9.148;2023-05-10T02:26:31;97572.44;;;12.50;100.00
28312;BME280;15572;48.810;9.148;2023-05-10T02:31:30;97585.13;;;12.56;100.00
28312;BME280;15572;48.810;9.148;2023-05-10T02:36:28;97591.78;;;12.60;100.00
28312;BME280;15572;48.810;9.148;2023-05-10T02:41:25;97604.38;;;12.55;100.00
28312;BME280;15572;48.810;9.148;2023-05-10T02:46:23;97605.47;;;12.47;100.00
28312;BME280;15572;48.810;9.148;2023-05-10T02:51:24;97592.13;;;12.46;100.00
28312;BME280;15572;48.810;9.148;2023-05-10T02:56:24;97595.25;;;12.49;100.00
28312;BME280;15572;48.810;9.148;2023-05-10T03:01:21;97600.16;;;12.59;100.00
28312;BME280;15572;48.810;9.148;2023-05-10T03:06:18;97601.97;;;12.65;100.00
28312;BME280;15572;48.810;9.148;2023-05-10T03:11:28;97606.72;;;12.70;100.00
28312;BME280;15572;48.810;9.148;2023-05-10T03:16:35;97610.19;;;12.58;100.00
28312;BME280;15572;48.810;9.148;2023-05-10T03:21:32;97614.50;;;12.41;100.00
28312;BME280;15572;48.810;9.148;2023-05-10T03:26:31;97616.44;;;12.34;100.00
28312;BME280;15572;48.810;9.148;2023-05-10T03:31:28;97614.19;;;12.31;100.00
28312;BME280;15572;48.810;9.148;2023-05-10T03:36:25;97615.47;;;12.29;100.00
28312;BME280;15572;48.810;9.148;2023-05-10T03:41:22;97616.25;;;12.29;100.00
28312;BME280;15572;48.810;9.148;2023-05-10T03:46:19;97624.19;;;12.31;100.00
28312;BME280;15572;48.810;9.148;2023-05-10T03:51:16;97622.31;;;12.31;100.00
28312;BME280;15572;48.810;9.148;2023-05-10T03:56:12;97621.66;;;12.36;100.00
28312;BME280;15572;48.810;9.148;2023-05-10T04:01:09;97625.56;;;12.40;100.00
28312;BME280;15572;48.810;9.148;2023-05-10T04:06:07;97625.81;;;12.38;100.00
28312;BME280;15572;48.810;9.148;2023-05-10T04:11:06;97631.91;;;12.34;100.00
28312;BME280;15572;48.810;9.148;2023-05-10T04:16:04;97631.00;;;12.40;100.00
28312;BME280;15572;48.810;9.148;2023-05-10T04:21:01;97626.34;;;12.47;100.00
28312;BME280;15572;48.810;9.148;2023-05-10T04:26:02;97631.75;;;12.53;100.00
28312;BME280;15572;48.810;9.148;2023-05-10T04:31:02;97639.41;;;12.56;100.00
28312;BME280;15572;48.810;9.148;2023-05-10T04:35:59;97640.47;;;12.55;100.00
28312;BME280;15572;48.810;9.148;2023-05-10T04:41:04;97639.41;;;12.56;100.00
28312;BME280;15572;48.810;9.148;2023-05-10T04:46:01;97642.38;;;12.55;100.00
28312;BME280;15572;48.810;9.148;2023-05-10T04:50:58;97660.56;;;12.54;100.00
28312;BME280;15572;48.810;9.148;2023-05-10T04:55:54;97666.16;;;12.59;100.00
28312;BME280;15572;48.810;9.148;2023-05-10T05:00:52;97660.63;;;12.66;100.00
28312;BME280;15572;48.810;9.148;2023-05-10T05:05:49;97664.81;;;12.69;100.00
28312;BME280;15572;48.810;9.148;2023-05-10T05:10:45;97653.22;;;12.80;100.00
28312;BME280;15572;48.810;9.148;2023-05-10T05:15:42;97659.84;;;12.84;100.00
28312;BME280;15572;48.810;9.148;2023-05-10T05:20:40;97660.69;;;12.84;100.00
28312;BME280;15572;48.810;9.148;2023-05-10T05:25:36;97671.34;;;12.86;100.00
28312;BME280;15572;48.810;9.148;2023-05-10T05:30:33;97671.94;;;12.88;100.00
28312;BME280;15572;48.810;9.148;2023-05-10T05:35:29;97671.94;;;12.88;100.00
28312;BME280;15572;48.810;9.148;2023-05-10T05:40:27;97684.63;;;12.94;100.00
28312;BME280;15572;48.810;9.148;2023-05-10T05:45:23;97682.91;;;12.99;100.00
28312;BME280;15572;48.810;9.148;2023-05-10T05:50:20;97686.59;;;13.12;100.00
28312;BME280;15572;48.810;9.148;2023-05-10T05:55:16;97694.91;;;13.10;100.00
28312;BME280;15572;48.810;9.148;2023-05-10T06:00:15;97687.00;;;13.08;100.00
28312;BME280;15572;48.810;9.148;2023-05-10T06:05:12;97694.66;;;13.18;100.00
28312;BME280;15572;48.810;9.148;2023-05-10T06:10:09;97696.25;;;13.26;100.00
28312;BME280;15572;48.810;9.148;2023-05-10T06:15:07;97703.13;;;13.28;100.00
28312;BME280;15572;48.810;9.148;2023-05-10T06:20:06;97707.75;;;13.28;100.00
28312;BME280;15572;48.810;9.148;2023-05-10T06:25:03;97716.34;;;13.25;100.00
28312;BME280;15572;48.810;9.148;2023-05-10T06:30:00;97715.28;;;13.26;100.00
28312;BME280;15572;48.810;9.148;2023-05-10T06:34:58;97715.53;;;13.24;100.00
28312;BME280;15572;48.810;9.148;2023-05-10T06:39:55;97715.22;;;13.32;100.00
28312;BME280;15572;48.810;9.148;2023-05-10T06:44:52;97714.53;;;13.37;100.00
28312;BME280;15572;48.810;9.148;2023-05-10T06:49:48;97716.19;;;13.38;100.00
28312;BME280;15572;48.810;9.148;2023-05-10T06:54:45;97725.28;;;13.50;100.00
28312;BME280;15572;48.810;9.148;2023-05-10T06:59:42;97717.28;;;13.55;100.00
28312;BME280;15572;48.810;9.148;2023-05-10T07:04:39;97723.06;;;13.59;100.00
28312;BME280;15572;48.810;9.148;2023-05-10T07:09:35;97717.41;;;13.60;100.00
28312;BME280;15572;48.810;9.148;2023-05-10T07:14:32;97721.69;;;13.68;100.00
28312;BME280;15572;48.810;9.148;2023-05-10T07:19:30;97734.88;;;13.71;100.00
28312;BME280;15572;48.810;9.148;2023-05-10T07:24:27;97730.00;;;13.91;100.00
28312;BME280;15572;48.810;9.148;2023-05-10T07:29:27;97733.56;;;13.91;100.00
28312;BME280;15572;48.810;9.148;2023-05-10T07:34:24;97732.31;;;14.06;100.00
28312;BME280;15572;48.810;9.148;2023-05-10T07:39:22;97738.88;;;14.16;100.00
28312;BME280;15572;48.810;9.148;2023-05-10T07:44:19;97751.63;;;14.34;100.00
28312;BME280;15572;48.810;9.148;2023-05-10T07:49:15;97741.78;;;14.33;100.00
28312;BME280;15572;48.810;9.148;2023-05-10T07:54:12;97750.97;;;14.39;100.00
28312;BME280;15572;48.810;9.148;2023-05-10T07:59:10;97753.22;;;14.42;100.00
28312;BME280;15572;48.810;9.148;2023-05-10T08:04:06;97753.22;;;14.42;100.00
28312;BME280;15572;48.810;9.148;2023-05-10T08:09:04;97755.88;;;14.30;100.00
28312;BME280;15572;48.810;9.148;2023-05-10T08:14:00;97756.72;;;14.30;100.00
28312;BME280;15572;48.810;9.148;2023-05-10T08:18:58;97756.63;;;14.37;100.00
28312;BME280;15572;48.810;9.148;2023-05-10T08:23:54;97759.44;;;14.30;100.00
28312;BME280;15572;48.810;9.148;2023-05-10T08:28:51;97764.88;;;14.30;100.00
28312;BME280;15572;48.810;9.148;2023-05-10T08:33:47;97769.78;;;14.40;100.00
28312;BME280;15572;48.810;9.148;2023-05-10T08:38:51;97775.84;;;14.42;100.00
28312;BME280;15572;48.810;9.148;2023-05-10T08:43:53;97776.53;;;14.38;100.00
28312;BME280;15572;48.810;9.148;2023-05-10T08:48:53;97773.06;;;14.60;100.00
28312;BME280;15572;48.810;9.148;2023-05-10T08:53:58;97782.09;;;14.72;100.00
28312;BME280;15572;48.810;9.148;2023-05-10T08:59:01;97776.75;;;14.66;100.00
28312;BME280;15572;48.810;9.148;2023-05-10T09:03:58;97792.66;;;14.81;100.00
28312;BME280;15572;48.810;9.148;2023-05-10T09:08:55;97795.53;;;14.97;100.00
28312;BME280;15572;48.810;9.148;2023-05-10T09:13:57;97792.50;;;15.05;100.00
28312;BME280;15572;48.810;9.148;2023-05-10T09:18:54;97796.53;;;15.26;100.00
28312;BME280;15572;48.810;9.148;2023-05-10T09:23:53;97814.56;;;15.39;100.00
28312;BME280;15572;48.810;9.148;2023-05-10T09:28:53;97802.94;;;15.32;96.70
28312;BME280;15572;48.810;9.148;2023-05-10T09:33:54;97809.81;;;15.34;93.10
28312;BME280;15572;48.810;9.148;2023-05-10T09:38:52;97803.53;;;15.34;95.34
28312;BME280;15572;48.810;9.148;2023-05-10T09:43:55;97800.47;;;15.42;91.79
28312;BME280;15572;48.810;9.148;2023-05-10T09:48:53;97804.63;;;15.33;93.95
28312;BME280;15572;48.810;9.148;2023-05-10T09:54:08;97815.88;;;15.48;93.08
28312;BME280;15572;48.810;9.148;2023-05-10T09:59:06;97815.66;;;15.73;89.71
28312;BME280;15572;48.810;9.148;2023-05-10T10:04:05;97807.94;;;15.81;90.50
28312;BME280;15572;48.810;9.148;2023-05-10T10:09:02;97818.50;;;15.66;90.85
28312;BME280;15572;48.810;9.148;2023-05-10T10:13:59;97815.31;;;15.69;90.99
28312;BME280;15572;48.810;9.148;2023-05-10T10:18:56;97808.09;;;15.75;90.99
28312;BME280;15572;48.810;9.148;2023-05-10T10:23:54;97805.56;;;15.96;88.27
28312;BME280;15572;48.810;9.148;2023-05-10T10:28:58;97811.59;;;16.10;87.52
28312;BME280;15572;48.810;9.148;2023-05-10T10:34:00;97806.34;;;16.20;86.00
28312;BME280;15572;48.810;9.148;2023-05-10T10:39:00;97810.97;;;16.20;88.84
28312;BME280;15572;48.810;9.148;2023-05-10T10:44:26;97803.56;;;16.32;89.81
28312;BME280;15572;48.810;9.148;2023-05-10T10:49:31;97813.22;;;16.23;85.75
28312;BME280;15572;48.810;9.148;2023-05-10T10:54:29;97815.66;;;15.84;88.96
28312;BME280;15572;48.810;9.148;2023-05-10T10:59:28;97822.25;;;16.23;76.38
28312;BME280;15572;48.810;9.148;2023-05-10T11:04:25;97825.06;;;15.65;72.99
28312;BME280;15572;48.810;9.148;2023-05-10T11:09:24;97824.81;;;15.02;78.25
28312;BME280;15572;48.810;9.148;2023-05-10T11:14:22;97821.44;;;14.77;82.04
28312;BME280;15572;48.810;9.148;2023-05-10T11:19:21;97832.47;;;14.82;82.72
28312;BME280;15572;48.810;9.148;2023-05-10T11:24:26;97820.66;;;14.88;82.16
28312;BME280;15572;48.810;9.148;2023-05-10T11:29:24;97813.72;;;15.15;81.82
28312;BME280;15572;48.810;9.148;2023-05-10T11:34:25;97811.00;;;15.50;77.95
28312;BME280;15572;48.810;9.148;2023-05-10T11:39:26;97826.53;;;15.49;79.34
28312;BME280;15572;48.810;9.148;2023-05-10T11:44:24;97826.00;;;15.59;76.85
28312;BME280;15572;48.810;9.148;2023-05-10T11:49:25;97827.50;;;15.43;80.60
28312;BME280;15572;48.810;9.148;2023-05-10T11:54:22;97833.72;;;15.09;82.86
28312;BME280;15572;48.810;9.148;2023-05-10T11:59:18;97837.03;;;14.99;81.79
28312;BME280;15572;48.810;9.148;2023-05-10T12:04:16;97843.47;;;14.75;84.73
28312;BME280;15572;48.810;9.148;2023-05-10T12:09:13;97843.97;;;14.84;85.04
28312;BME280;15572;48.810;9.148;2023-05-10T12:14:10;97846.53;;;15.08;84.26
28312;BME280;15572;48.810;9.148;2023-05-10T12:19:07;97862.25;;;15.36;82.23
28312;BME280;15572;48.810;9.148;2023-05-10T12:24:05;97853.63;;;15.63;78.42
28312;BME280;15572;48.810;9.148;2023-05-10T12:29:16;97850.09;;;15.74;79.22
28312;BME280;15572;48.810;9.148;2023-05-10T12:34:23;97862.75;;;15.56;72.19
28312;BME280;15572;48.810;9.148;2023-05-10T12:39:24;97865.84;;;15.60;69.00
28312;BME280;15572;48.810;9.148;2023-05-10T12:44:47;97868.81;;;15.82;71.24
28312;BME280;15572;48.810;9.148;2023-05-10T12:49:44;97868.47;;;15.78;71.67
28312;BME280;15572;48.810;9.148;2023-05-10T12:54:56;97863.00;;;15.67;71.58
28312;BME280;15572;48.810;9.148;2023-05-10T13:00:02;97869.06;;;15.69;72.32
28312;BME280;15572;48.810;9.148;2023-05-10T13:05:00;97863.19;;;15.42;73.81
28312;BME280;15572;48.810;9.148;2023-05-10T13:10:02;97862.94;;;15.32;74.10
28312;BME280;15572;48.810;9.148;2023-05-10T13:14:59;97857.13;;;15.16;73.21
28312;BME280;15572;48.810;9.148;2023-05-10T13:31:16;97864.00;;;15.31;73.80
28312;BME280;15572;48.810;9.148;2023-05-10T13:36:13;97850.56;;;15.17;72.09
28312;BME280;15572;48.810;9.148;2023-05-10T13:41:09;97855.84;;;15.42;73.25
28312;BME280;15572;48.810;9.148;2023-05-10T13:46:06;97850.03;;;15.50;72.42
28312;BME280;15572;48.810;9.148;2023-05-10T13:51:04;97850.31;;;15.72;72.18
28312;BME280;15572;48.810;9.148;2023-05-10T13:56:00;97848.53;;;15.78;70.74
28312;BME280;15572;48.810;9.148;2023-05-10T14:00:58;97835.97;;;15.65;71.36
28312;BME280;15572;48.810;9.148;2023-05-10T14:05:54;97844.03;;;15.83;66.50
28312;BME280;15572;48.810;9.148;2023-05-10T14:10:52;97843.28;;;15.99;66.88
28312;BME280;15572;48.810;9.148;2023-05-10T14:15:48;97842.47;;;15.99;65.21
28312;BME280;15572;48.810;9.148;2023-05-10T14:20:45;97839.50;;;16.12;61.27
28312;BME280;15572;48.810;9.148;2023-05-10T14:25:41;97835.31;;;16.10;60.68
28312;BME280;15572;48.810;9.148;2023-05-10T14:30:40;97837.97;;;15.93;61.09
28312;BME280;15572;48.810;9.148;2023-05-10T14:35:36;97837.00;;;15.87;62.20
28312;BME280;15572;48.810;9.148;2023-05-10T14:40:32;97835.94;;;16.00;61.83
28312;BME280;15572;48.810;9.148;2023-05-10T14:45:30;97832.25;;;16.06;63.42
28312;BME280;15572;48.810;9.148;2023-05-10T14:50:28;97841.84;;;16.20;61.81
28312;BME280;15572;48.810;9.148;2023-05-10T14:55:24;97837.47;;;16.08;61.58
28312;BME280;15572;48.810;9.148;2023-05-10T15:00:21;97836.88;;;16.17;62.45
28312;BME280;15572;48.810;9.148;2023-05-10T15:05:18;97835.94;;;16.40;63.46
28312;BME280;15572;48.810;9.148;2023-05-10T15:10:16;97828.22;;;16.60;64.96
28312;BME280;15572;48.810;9.148;2023-05-10T15:15:12;97822.13;;;16.58;64.33
28312;BME280;15572;48.810;9.148;2023-05-10T15:20:09;97827.59;;;16.58;64.35
28312;BME280;15572;48.810;9.148;2023-05-10T15:25:06;97824.03;;;16.58;64.21
28312;BME280;15572;48.810;9.148;2023-05-10T15:30:06;97832.25;;;16.46;64.44
28312;BME280;15572;48.810;9.148;2023-05-10T15:35:03;97834.69;;;16.31;64.61
28312;BME280;15572;48.810;9.148;2023-05-10T15:39:59;97828.75;;;16.34;63.86
28312;BME280;15572;48.810;9.148;2023-05-10T15:44:58;97833.69;;;16.49;64.49
28312;BME280;15572;48.810;9.148;2023-05-10T15:49:56;97832.34;;;16.51;64.28
28312;BME280;15572;48.810;9.148;2023-05-10T15:54:53;97839.38;;;16.47;65.78
28312;BME280;15572;48.810;9.148;2023-05-10T15:59:49;97849.84;;;16.50;66.08
28312;BME280;15572;48.810;9.148;2023-05-10T16:04:46;97845.06;;;16.17;61.27
28312;BME280;15572;48.810;9.148;2023-05-10T16:09:44;97848.03;;;16.16;61.67
28312;BME280;15572;48.810;9.148;2023-05-10T16:14:40;97847.19;;;16.04;64.42
28312;BME280;15572;48.810;9.148;2023-05-10T16:19:37;97857.78;;;16.12;66.01
28312;BME280;15572;48.810;9.148;2023-05-10T16:24:33;97861.13;;;15.90;63.73
28312;BME280;15572;48.810;9.148;2023-05-10T16:29:32;97851.97;;;15.96;66.34
28312;BME280;15572;48.810;9.148;2023-05-10T16:34:28;97851.97;;;15.96;64.87
28312;BME280;15572;48.810;9.148;2023-05-10T16:39:25;97858.13;;;15.92;64.12
28312;BME280;15572;48.810;9.148;2023-05-10T16:44:21;97857.31;;;15.91;62.97
28312;BME280;15572;48.810;9.148;2023-05-10T16:49:19;97859.56;;;15.94;61.80
28312;BME280;15572;48.810;9.148;2023-05-10T16:54:15;97860.28;;;15.90;61.34
28312;BME280;15572;48.810;9.148;2023-05-10T16:59:12;97868.22;;;15.68;62.32
28312;BME280;15572;48.810;9.148;2023-05-10T17:04:09;97871.19;;;15.67;64.06
28312;BME280;15572;48.810;9.148;2023-05-10T17:09:06;97867.16;;;15.57;65.23
28312;BME280;15572;48.810;9.148;2023-05-10T17:14:03;97870.59;;;15.53;66.13
28312;BME280;15572;48.810;9.148;2023-05-10T17:18:59;97878.63;;;15.48;66.61
28312;BME280;15572;48.810;9.148;2023-05-10T17:23:56;97875.06;;;15.47;66.89
28312;BME280;15572;48.810;9.148;2023-05-10T17:28:54;97868.94;;;15.52;68.97
28312;BME280;15572;48.810;9.148;2023-05-10T17:33:50;97883.19;;;15.54;69.70
28312;BME280;15572;48.810;9.148;2023-05-10T17:38:47;97881.59;;;15.46;69.84
28312;BME280;15572;48.810;9.148;2023-05-10T17:43:43;97890.81;;;15.45;70.68
28312;BME280;15572;48.810;9.148;2023-05-10T17:48:41;97883.56;;;15.39;71.70
28312;BME280;15572;48.810;9.148;2023-05-10T17:53:38;97885.59;;;15.32;72.50
28312;BME280;15572;48.810;9.148;2023-05-10T17:58:34;97889.59;;;15.30;73.73
28312;BME280;15572;48.810;9.148;2023-05-10T18:03:34;97890.19;;;15.20;76.15
28312;BME280;15572;48.810;9.148;2023-05-10T18:08:32;97897.13;;;15.04;77.20
28312;BME280;15572;48.810;9.148;2023-05-10T18:13:28;97896.25;;;14.92;79.10
28312;BME280;15572;48.810;9.148;2023-05-10T18:18:25;97890.16;;;14.79;81.42
28312;BME280;15572;48.810;9.148;2023-05-10T18:23:21;97899.13;;;14.67;82.18
28312;BME280;15572;48.810;9.148;2023-05-10T18:28:19;97907.72;;;14.64;81.73
28312;BME280;15572;48.810;9.148;2023-05-10T18:33:16;97904.28;;;14.87;79.61
28312;BME280;15572;48.810;9.148;2023-05-10T18:38:12;97904.03;;;14.59;78.99
28312;BME280;15572;48.810;9.148;2023-05-10T18:43:09;97903.66;;;14.37;79.48
28312;BME280;15572;48.810;9.148;2023-05-10T18:48:07;97901.91;;;14.24;81.00
28312;BME280;15572;48.810;9.148;2023-05-10T18:53:03;97910.81;;;14.13;81.28
28312;BME280;15572;48.810;9.148;2023-05-10T18:58:00;97916.53;;;14.05;81.31
28312;BME280;15572;48.810;9.148;2023-05-10T19:02:56;97920.09;;;14.06;81.97
28312;BME280;15572;48.810;9.148;2023-05-10T19:07:54;97911.56;;;14.02;82.39
28312;BME280;15572;48.810;9.148;2023-05-10T19:12:50;97922.91;;;13.99;83.44
28312;BME280;15572;48.810;9.148;2023-05-10T19:17:47;97920.25;;;13.93;84.93
28312;BME280;15572;48.810;9.148;2023-05-10T19:22:43;97928.94;;;13.83;86.76
28312;BME280;15572;48.810;9.148;2023-05-10T19:27:41;97932.22;;;13.67;88.46
28312;BME280;15572;48.810;9.148;2023-05-10T19:32:38;97930.72;;;13.46;91.06
28312;BME280;15572;48.810;9.148;2023-05-10T19:37:38;97930.59;;;13.34;92.36
28312;BME280;15572;48.810;9.148;2023-05-10T19:42:34;97938.13;;;13.32;92.38
28312;BME280;15572;48.810;9.148;2023-05-10T19:47:32;97936.53;;;13.25;93.60
28312;BME280;15572;48.810;9.148;2023-05-10T19:52:30;97942.81;;;13.19;94.75
28312;BME280;15572;48.810;9.148;2023-05-10T19:57:26;97940.97;;;13.13;95.80
28312;BME280;15572;48.810;9.148;2023-05-10T20:02:23;97937.22;;;13.14;97.10
28312;BME280;15572;48.810;9.148;2023-05-10T20:07:21;97933.00;;;13.18;97.90
28312;BME280;15572;48.810;9.148;2023-05-10T20:12:17;97939.09;;;13.13;98.84
28312;BME280;15572;48.810;9.148;2023-05-10T20:17:13;97934.72;;;13.12;99.40
28312;BME280;15572;48.810;9.148;2023-05-10T20:22:10;97939.47;;;13.17;99.14
28312;BME280;15572;48.810;9.148;2023-05-10T20:27:08;97933.22;;;13.16;98.94
28312;BME280;15572;48.810;9.148;2023-05-10T20:32:04;97931.72;;;13.20;98.49
28312;BME280;15572;48.810;9.148;2023-05-10T20:37:01;97936.72;;;13.23;96.90
28312;BME280;15572;48.810;9.148;2023-05-10T20:41:57;97940.31;;;13.17;97.28
28312;BME280;15572;48.810;9.148;2023-05-10T20:46:55;97938.03;;;13.14;97.47
28312;BME280;15572;48.810;9.148;2023-05-10T20:51:52;97932.81;;;13.13;96.33
28312;BME280;15572;48.810;9.148;2023-05-10T20:56:48;97926.56;;;13.12;94.65
28312;BME280;15572;48.810;9.148;2023-05-10T21:01:45;97924.84;;;13.11;93.96
28312;BME280;15572;48.810;9.148;2023-05-10T21:06:43;97929.28;;;13.12;94.12
28312;BME280;15572;48.810;9.148;2023-05-10T21:11:40;97926.34;;;13.07;94.60
28312;BME280;15572;48.810;9.148;2023-05-10T21:16:36;97933.91;;;12.98;95.09
28312;BME280;15572;48.810;9.148;2023-05-10T21:21:33;97932.03;;;12.99;94.87
28312;BME280;15572;48.810;9.148;2023-05-10T21:26:31;97925.75;;;12.98;95.39
28312;BME280;15572;48.810;9.148;2023-05-10T21:31:27;97918.44;;;12.99;96.09
28312;BME280;15572;48.810;9.148;2023-05-10T21:36:24;97930.81;;;12.95;97.02
28312;BME280;15572;48.810;9.148;2023-05-10T21:41:21;97922.03;;;12.93;96.80
28312;BME280;15572;48.810;9.148;2023-05-10T21:46:19;97927.25;;;12.94;96.84
28312;BME280;15572;48.810;9.148;2023-05-10T21:51:15;97926.66;;;12.92;97.45
28312;BME280;15572;48.810;9.148;2023-05-10T21:56:12;97928.75;;;12.90;98.14
28312;BME280;15572;48.810;9.148;2023-05-10T22:01:08;97926.88;;;12.84;98.88
28312;BME280;15572;48.810;9.148;2023-05-10T22:06:06;97927.75;;;12.78;99.88
28312;BME280;15572;48.810;9.148;2023-05-10T22:11:03;97928.63;;;12.72;100.00
28312;BME280;15572;48.810;9.148;2023-05-10T22:15:59;97930.38;;;12.60;100.00
28312;BME280;15572;48.810;9.148;2023-05-10T22:20:56;97934.53;;;12.56;100.00
28312;BME280;15572;48.810;9.148;2023-05-10T22:25:58;97932.94;;;12.42;100.00
28312;BME280;15572;48.810;9.148;2023-05-10T22:30:55;97919.38;;;12.35;100.00
28312;BME280;15572;48.810;9.148;2023-05-10T22:35:51;97926.69;;;12.35;100.00
28312;BME280;15572;48.810;9.148;2023-05-10T22:40:48;97927.75;;;12.34;100.00
28312;BME280;15572;48.810;9.148;2023-05-10T22:45:45;97924.03;;;12.28;100.00
28312;BME280;15572;48.810;9.148;2023-05-10T22:50:42;97929.84;;;12.25;100.00
28312;BME280;15572;48.810;9.148;2023-05-10T22:55:38;97927.78;;;12.20;100.00
28312;BME280;15572;48.810;9.148;2023-05-10T23:00:35;97925.31;;;12.12;100.00
28312;BME280;15572;48.810;9.148;2023-05-10T23:05:33;97933.66;;;12.11;100.00
28312;BME280;15572;48.810;9.148;2023-05-10T23:10:29;97934.50;;;12.11;100.00
28312;BME280;15572;48.810;9.148;2023-05-10T23:15:26;97935.13;;;12.07;100.00
28312;BME280;15572;48.810;9.148;2023-05-10T23:20:22;97936.38;;;12.11;100.00
28312;BME280;15572;48.810;9.148;2023-05-10T23:25:20;97941.59;;;12.12;100.00
28312;BME280;15572;48.810;9.148;2023-05-10T23:30:17;97949.94;;;12.17;100.00
28312;BME280;15572;48.810;9.148;2023-05-10T23:35:13;97942.00;;;12.16;100.00
28312;BME280;15572;48.810;9.148;2023-05-10T23:40:10;97941.81;;;12.11;100.00
28312;BME280;15572;48.810;9.148;2023-05-10T23:45:09;97935.16;;;12.00;100.00
28312;BME280;15572;48.810;9.148;2023-05-10T23:50:07;97939.94;;;12.05;100.00
28312;BME280;15572;48.810;9.148;2023-05-10T23:55:04;97937.41;;;12.10;100.00
